LFRV/VNE METAR and TAF weather

Enter ICAO airport designator
Station Type Date Time Source
LFRV METAR 2022/01/29 14:00 UTC NOAA

LFRV 291400Z AUTO 26005KT 220V300 9999 BKN007 OVC013 10/09 Q1036


Station Type Date Time Source
LFRV Decoded METAR 2022/01/29 14:00 UTC NOAA

Station name not available
Jan 29, 2022 - 09:00 AM EST / 2022.01.29 1400 UTC
Wind: from the W (260 degrees) at 6 MPH (5 KT) (direction variable):0
Visibility: greater than 7 mile(s):0
Sky conditions: overcast
Temperature: 50 F (10 C)
Dew Point: 48 F (9 C)
Relative Humidity: 93%
Pressure (altimeter): 30.59 in. Hg (1036 hPa)
ob: LFRV 291400Z AUTO 26005KT 220V300 9999 BKN007 OVC013 10/09 Q1036
cycle: 14

Station Type Date Time Source
LFRV TAF UTC NOAA

Error!

Example: see airport list